createdAt,value
2022-11-24T00:01:33.550Z,99554.97
2022-11-24T00:04:36.472Z,99563.62
2022-11-24T00:07:39.242Z,99561.03
2022-11-24T00:10:42.532Z,99551.56
2022-11-24T00:13:46.390Z,99557.66
2022-11-24T00:16:50.645Z,99560.16
2022-11-24T00:19:54.330Z,99564.44
2022-11-24T00:22:57.236Z,99562.75
2022-11-24T00:26:14.438Z,99563.56
2022-11-24T00:29:18.628Z,99565.25
2022-11-24T00:32:21.387Z,99574.78
2022-11-24T00:35:24.440Z,99586.91
2022-11-24T00:38:27.572Z,99586.00
2022-11-24T00:41:31.556Z,99588.59
2022-11-24T00:44:35.762Z,99592.00
2022-11-24T00:47:39.616Z,99592.88
2022-11-24T00:50:42.631Z,99600.59
2022-11-24T00:53:46.375Z,99601.41
2022-11-24T00:56:49.363Z,99597.94
2022-11-24T00:59:52.435Z,99602.28
2022-11-24T01:02:55.423Z,99601.41
2022-11-24T01:06:06.300Z,99602.16
2022-11-24T01:09:11.480Z,99608.22
2022-11-24T01:12:14.539Z,99615.94
2022-11-24T01:15:17.253Z,99616.88
2022-11-24T01:18:23.213Z,99611.69
2022-11-24T01:21:26.191Z,99619.44
2022-11-24T01:24:29.676Z,99606.47
2022-11-24T01:27:32.351Z,99607.22
2022-11-24T01:30:35.191Z,99619.37
2022-11-24T01:33:38.708Z,99615.94
2022-11-24T01:36:41.695Z,99619.34
2022-11-24T01:39:44.412Z,99620.22
2022-11-24T01:42:50.432Z,99619.34
2022-11-24T01:45:54.423Z,99617.44
2022-11-24T01:49:18.068Z,99611.41
2022-11-24T01:52:30.457Z,99622.69
2022-11-24T01:55:37.805Z,99618.25
2022-11-24T01:58:43.027Z,99616.62
2022-11-24T02:01:48.959Z,99626.09
2022-11-24T02:04:52.398Z,99622.56
2022-11-24T02:07:59.216Z,99624.25
2022-11-24T02:11:04.958Z,99619.91
2022-11-24T02:14:15.764Z,99619.84
2022-11-24T02:17:18.769Z,99621.50
2022-11-24T02:20:22.575Z,99618.91
2022-11-24T02:23:36.989Z,99623.38
2022-11-24T02:26:46.051Z,99625.03
2022-11-24T02:29:49.472Z,99628.56
2022-11-24T02:32:54.396Z,99636.31
2022-11-24T02:35:58.622Z,99634.59
2022-11-24T02:39:01.680Z,99638.91
2022-11-24T02:42:12.339Z,99630.31
2022-11-24T02:45:16.828Z,99638.00
2022-11-24T02:48:19.462Z,99635.47
2022-11-24T02:51:23.380Z,99638.94
2022-11-24T02:54:27.028Z,99638.00
2022-11-24T02:57:29.913Z,99634.47
2022-11-24T03:00:32.922Z,99633.72
2022-11-24T03:03:36.310Z,99645.78
2022-11-24T03:06:39.297Z,99647.47
2022-11-24T03:09:42.668Z,99650.00
2022-11-24T03:12:45.707Z,99643.81
2022-11-24T03:15:49.449Z,99651.50
2022-11-24T03:18:53.983Z,99651.37
2022-11-24T03:21:57.094Z,99647.84
2022-11-24T03:25:00.427Z,99658.19
2022-11-24T03:28:04.077Z,99665.87
2022-11-24T03:31:08.320Z,99661.41
2022-11-24T03:34:12.191Z,99657.06
2022-11-24T03:37:15.051Z,99650.63
2022-11-24T03:40:18.385Z,99668.09
2022-11-24T03:43:21.507Z,99671.56
2022-11-24T03:46:24.235Z,99667.16
2022-11-24T03:49:27.145Z,99668.78
2022-11-24T03:52:32.772Z,99657.50
2022-11-24T03:55:35.891Z,99666.00
2022-11-24T03:58:39.073Z,99659.06
2022-11-24T04:01:43.235Z,99666.84
2022-11-24T04:04:50.649Z,99675.41
2022-11-24T04:07:57.744Z,99668.47
2022-11-24T04:11:01.424Z,99675.34
2022-11-24T04:14:13.331Z,99675.41
2022-11-24T04:17:29.583Z,99676.22
2022-11-24T04:20:32.497Z,99676.22
2022-11-24T04:23:35.278Z,99683.91
2022-11-24T04:26:39.233Z,99687.38
2022-11-24T04:29:42.964Z,99693.16
2022-11-24T04:32:46.217Z,99693.16
2022-11-24T04:35:53.525Z,99705.06
2022-11-24T04:39:25.614Z,99716.28
2022-11-24T04:42:21.505Z,99711.00
2022-11-24T04:45:28.276Z,99726.50
2022-11-24T04:48:32.803Z,99730.78
2022-11-24T04:51:45.353Z,99740.06
2022-11-24T04:54:49.361Z,99746.12
2022-11-24T04:57:52.094Z,99743.25
2022-11-24T05:00:55.030Z,99753.59
2022-11-24T05:03:58.726Z,99748.38
2022-11-24T05:07:02.059Z,99762.97
2022-11-24T05:10:25.019Z,99764.59
2022-11-24T05:13:35.967Z,99768.97
2022-11-24T05:16:38.935Z,99759.91
2022-11-24T05:19:43.156Z,99775.75
2022-11-24T05:22:51.573Z,99780.03
2022-11-24T05:25:55.494Z,99782.56
2022-11-24T05:29:00.357Z,99781.66
2022-11-24T05:32:03.703Z,99780.78
2022-11-24T05:35:09.894Z,99782.56
2022-11-24T05:38:14.297Z,99785.13
2022-11-24T05:41:17.168Z,99777.38
2022-11-24T05:44:21.113Z,99790.97
2022-11-24T05:47:34.389Z,99789.97
2022-11-24T05:50:41.219Z,99785.59
2022-11-24T05:53:52.410Z,99803.09
2022-11-24T05:57:01.635Z,99809.19
2022-11-24T06:00:14.208Z,99808.38
2022-11-24T06:03:21.117Z,99807.56
2022-11-24T06:06:24.410Z,99812.88
2022-11-24T06:09:28.514Z,99820.63
2022-11-24T06:12:33.251Z,99815.38
2022-11-24T06:15:42.817Z,99821.56
2022-11-24T06:18:48.636Z,99825.13
2022-11-24T06:21:52.042Z,99826.22
2022-11-24T06:24:54.724Z,99840.00
2022-11-24T06:27:58.223Z,99843.59
2022-11-24T06:31:05.490Z,99843.66
2022-11-24T06:34:11.691Z,99844.69
2022-11-24T06:37:18.991Z,99842.16
2022-11-24T06:40:26.253Z,99848.16
2022-11-24T06:43:30.725Z,99855.09
2022-11-24T06:46:34.633Z,99857.00
2022-11-24T06:49:37.729Z,99863.94
2022-11-24T06:52:41.062Z,99870.87
2022-11-24T06:55:45.376Z,99873.50
2022-11-24T06:58:53.599Z,99877.88
2022-11-24T07:01:58.590Z,99875.34
2022-11-24T07:05:08.379Z,99895.28
2022-11-24T07:08:17.602Z,99897.88
2022-11-24T07:11:23.639Z,99902.22
2022-11-24T07:14:28.236Z,99898.75
2022-11-24T07:17:43.240Z,99909.16
2022-11-24T07:20:48.343Z,99914.41
2022-11-24T07:23:58.230Z,99916.25
2022-11-24T07:27:01.300Z,99928.50
2022-11-24T07:30:07.750Z,99926.94
2022-11-24T07:33:12.195Z,99924.56
2022-11-24T07:36:17.490Z,99929.19
2022-11-24T07:39:21.257Z,99932.94
2022-11-24T07:42:24.499Z,99929.72
2022-11-24T07:45:29.646Z,99917.75
2022-11-24T07:48:34.789Z,99929.19
2022-11-24T07:51:44.349Z,99932.75
2022-11-24T07:54:47.657Z,99928.41
2022-11-24T07:57:55.635Z,99937.03
2022-11-24T08:01:01.449Z,99939.69
2022-11-24T08:04:07.164Z,99942.34
2022-11-24T08:07:15.537Z,99944.19
2022-11-24T08:10:19.919Z,99940.72
2022-11-24T08:13:26.418Z,99940.31
2022-11-24T08:16:29.589Z,99948.34
2022-11-24T08:19:34.522Z,99948.59
2022-11-24T08:22:39.270Z,99941.84
2022-11-24T08:25:43.911Z,99949.94
2022-11-24T08:28:48.173Z,99951.16
2022-11-24T08:31:52.717Z,99956.59
2022-11-24T08:35:08.570Z,99964.03
2022-11-24T08:38:19.833Z,99966.09
2022-11-24T08:41:25.205Z,99959.47
2022-11-24T08:44:30.424Z,99965.09
2022-11-24T08:47:34.609Z,99963.44
2022-11-24T08:50:37.664Z,99967.69
2022-11-24T08:53:42.237Z,99968.44
2022-11-24T08:56:49.986Z,99975.59
2022-11-24T08:59:53.532Z,99976.59
2022-11-24T09:03:03.778Z,99981.13
2022-11-24T09:06:09.098Z,99981.19
2022-11-24T09:09:12.478Z,99981.25
2022-11-24T09:12:17.583Z,99981.44
2022-11-24T09:15:20.913Z,99985.69
2022-11-24T09:18:29.915Z,99996.94
2022-11-24T09:21:39.929Z,99985.63
2022-11-24T09:24:43.451Z,99989.81
2022-11-24T09:27:47.261Z,99993.09
2022-11-24T09:30:53.425Z,99989.47
2022-11-24T09:34:00.606Z,99999.22
2022-11-24T09:37:04.542Z,99994.91
2022-11-24T10:01:18.908Z,99999.13
2022-11-24T10:04:28.452Z,99999.13
2022-11-24T10:08:04.899Z,100005.78
2022-11-24T10:11:15.008Z,99996.03
2022-11-24T10:14:39.117Z,100002.06
2022-11-24T10:18:04.186Z,100006.34
2022-11-24T10:21:31.924Z,100003.75
2022-11-24T10:24:56.701Z,100002.94
2022-11-24T10:28:06.869Z,100000.41
2022-11-24T10:31:24.743Z,100011.91
2022-11-24T10:34:38.807Z,100013.94
2022-11-24T10:38:08.146Z,100016.16
2022-11-24T10:41:21.007Z,100016.78
2022-11-24T10:44:24.818Z,100018.44
2022-11-24T10:47:31.910Z,100022.63
2022-11-24T10:50:41.955Z,100024.94
2022-11-24T10:53:46.244Z,100034.16
2022-11-24T10:56:53.612Z,100032.03
2022-11-24T11:00:02.095Z,100033.97
2022-11-24T11:03:18.922Z,100036.87
2022-11-24T11:06:25.276Z,100037.16
2022-11-24T11:09:40.834Z,100039.91
2022-11-24T11:12:45.057Z,100036.50
2022-11-24T11:15:52.203Z,100040.78
2022-11-24T11:18:56.734Z,100039.81
2022-11-24T11:22:03.946Z,100043.44
2022-11-24T11:25:10.076Z,100041.84
2022-11-24T11:28:29.039Z,100036.00
2022-11-24T11:31:35.471Z,100038.09
2022-11-24T11:34:42.417Z,100037.53
2022-11-24T11:37:47.897Z,100035.03
2022-11-24T11:40:54.304Z,100034.38
2022-11-24T11:44:22.673Z,100030.53
2022-11-24T11:48:01.588Z,100031.62
2022-11-24T11:51:26.131Z,100037.03
2022-11-24T11:54:46.124Z,100044.72
2022-11-24T11:58:12.954Z,100043.47
2022-11-24T12:01:35.762Z,100045.03
2022-11-24T12:04:47.827Z,100040.72
2022-11-24T12:08:21.515Z,100036.13
2022-11-24T12:11:44.898Z,100036.97
2022-11-24T12:14:59.355Z,100030.09
2022-11-24T12:18:57.161Z,100042.16
2022-11-24T12:22:15.897Z,100043.59
2022-11-24T12:25:32.858Z,100046.78
2022-11-24T12:29:14.250Z,100047.09
2022-11-24T12:32:58.600Z,100048.13
2022-11-24T12:36:21.928Z,100053.50
2022-11-24T12:39:41.824Z,100046.16
2022-11-24T12:43:20.953Z,100047.47
2022-11-24T12:46:27.986Z,100049.94
2022-11-24T12:50:11.737Z,100060.50
2022-11-24T12:53:22.932Z,100058.31
2022-11-24T12:56:38.843Z,100063.78
2022-11-24T13:00:01.852Z,100065.53
2022-11-24T13:03:26.946Z,100062.19
2022-11-24T13:06:55.787Z,100066.25
2022-11-24T13:14:27.853Z,100072.59
2022-11-24T13:17:52.461Z,100081.13
2022-11-24T13:20:58.691Z,100080.19
2022-11-24T13:24:05.023Z,100079.19
2022-11-24T13:27:26.792Z,100085.50
2022-11-24T13:30:34.719Z,100091.63
2022-11-24T13:33:40.034Z,100088.22
2022-11-24T13:36:53.715Z,100090.88
2022-11-24T13:40:03.242Z,100097.75
2022-11-24T13:43:07.761Z,100100.34
2022-11-24T13:46:14.331Z,100097.00
2022-11-24T13:49:20.820Z,100099.66
2022-11-24T13:52:38.750Z,100104.03
2022-11-24T13:55:56.591Z,100106.62
2022-11-24T13:59:19.450Z,100105.59
2022-11-24T14:02:26.884Z,100106.44
2022-11-24T14:05:39.140Z,100114.16
2022-11-24T14:08:48.961Z,100116.69
2022-11-24T14:12:17.892Z,100119.41
2022-11-24T14:15:29.810Z,100124.59
2022-11-24T14:18:36.311Z,100122.88
2022-11-24T14:21:46.883Z,100125.41
2022-11-24T14:24:56.746Z,100139.97
2022-11-24T14:28:25.821Z,100140.75
2022-11-24T14:31:30.708Z,100139.72
2022-11-24T14:34:38.328Z,100138.66
2022-11-24T14:37:46.752Z,100147.19
2022-11-24T14:40:55.144Z,100148.72
2022-11-24T14:44:15.026Z,100150.28
2022-11-24T14:47:46.930Z,100155.34
2022-11-24T14:50:50.922Z,100166.34
2022-11-24T14:54:20.931Z,100162.75
2022-11-24T14:57:37.961Z,100166.09
2022-11-24T15:00:44.931Z,100175.38
2022-11-24T15:04:39.355Z,100170.91
2022-11-24T15:07:48.815Z,100178.31
2022-11-24T15:11:03.330Z,100178.16
2022-11-24T15:14:34.299Z,100185.75
2022-11-24T15:17:48.736Z,100185.47
2022-11-24T15:20:58.926Z,100197.22
2022-11-24T15:24:18.962Z,100202.41
2022-11-24T15:27:28.633Z,100198.97
2022-11-24T15:30:36.156Z,100201.31
2022-11-24T15:33:42.540Z,100205.47
2022-11-24T15:36:46.971Z,100214.59
2022-11-24T15:39:57.796Z,100209.94
2022-11-24T15:43:42.286Z,100208.72
2022-11-24T15:46:54.804Z,100223.63
2022-11-24T15:50:06.701Z,100235.25
2022-11-24T15:53:21.782Z,100226.09
2022-11-24T15:56:33.205Z,100235.41
2022-11-24T15:59:38.820Z,100240.37
2022-11-24T16:02:42.310Z,100243.47
2022-11-24T16:05:58.757Z,100242.97
2022-11-24T16:09:03.886Z,100247.69
2022-11-24T16:12:08.766Z,100250.19
2022-11-24T16:15:14.931Z,100257.75
2022-11-24T16:18:25.781Z,100253.00
2022-11-24T16:21:38.729Z,100264.56
2022-11-24T16:24:49.783Z,100266.25
2022-11-24T16:27:58.859Z,100262.78
2022-11-24T16:31:16.506Z,100261.97
2022-11-24T16:34:36.984Z,100260.06
2022-11-24T16:37:51.059Z,100258.19
2022-11-24T16:40:58.589Z,100265.97
2022-11-24T16:44:06.997Z,100262.19
2022-11-24T16:47:14.710Z,100270.66
2022-11-24T16:50:18.877Z,100276.03
2022-11-24T16:53:28.758Z,100287.78
2022-11-24T16:56:47.308Z,100289.88
2022-11-24T17:00:10.786Z,100289.94
2022-11-24T17:03:17.578Z,100288.31
2022-11-24T17:06:27.985Z,100293.88
2022-11-24T17:09:40.612Z,100301.37
2022-11-24T17:12:51.776Z,100296.84
2022-11-24T17:15:55.695Z,100304.06
2022-11-24T17:19:13.057Z,100307.22
2022-11-24T17:22:18.213Z,100310.34
2022-11-24T17:25:25.071Z,100310.44
2022-11-24T17:28:30.729Z,100319.16
2022-11-24T17:31:50.140Z,100318.25
2022-11-24T17:34:53.677Z,100320.94
2022-11-24T17:37:58.995Z,100312.13
2022-11-24T17:41:17.698Z,100310.44
2022-11-24T17:44:29.050Z,100310.44
2022-11-24T17:47:39.663Z,100330.00
2022-11-24T17:50:44.909Z,100331.00
2022-11-24T17:53:58.752Z,100333.56
2022-11-24T17:57:06.936Z,100336.31
2022-11-24T18:00:15.762Z,100342.13
2022-11-24T18:03:26.733Z,100343.56
2022-11-24T18:06:35.377Z,100347.47
2022-11-24T18:09:47.058Z,100348.72
2022-11-24T18:13:00.702Z,100361.28
2022-11-24T18:16:10.955Z,100364.66
2022-11-24T18:19:29.753Z,100361.53
2022-11-24T18:23:04.720Z,100360.81
2022-11-24T18:26:12.031Z,100366.13
2022-11-24T18:29:23.261Z,100365.41
2022-11-24T18:32:36.726Z,100374.03
2022-11-24T18:35:43.711Z,100376.88
2022-11-24T18:38:50.214Z,100376.81
2022-11-24T18:42:00.641Z,100381.97
2022-11-24T18:45:08.545Z,100371.47
2022-11-24T18:48:22.796Z,100374.84
2022-11-24T18:51:38.678Z,100379.22
2022-11-24T18:54:45.946Z,100378.88
2022-11-24T18:58:09.751Z,100386.63
2022-11-24T19:01:29.724Z,100391.59
2022-11-24T19:04:47.778Z,100386.19
2022-11-24T19:08:00.713Z,100386.91
2022-11-24T19:11:08.098Z,100386.78
2022-11-24T19:14:20.864Z,100395.31
2022-11-24T19:17:31.576Z,100391.75
2022-11-24T19:20:41.333Z,100403.78
2022-11-24T19:23:45.073Z,100410.28
2022-11-24T19:27:00.604Z,100424.72
2022-11-24T19:30:06.832Z,100424.44
2022-11-24T19:33:15.522Z,100431.72
2022-11-24T19:36:22.924Z,100440.97
2022-11-24T19:39:27.086Z,100443.38
2022-11-24T19:42:49.068Z,100449.97
2022-11-24T19:45:54.766Z,100455.75
2022-11-24T19:49:09.678Z,100451.28
2022-11-24T19:52:24.711Z,100450.94
2022-11-24T19:55:33.842Z,100456.97
2022-11-24T19:58:41.030Z,100464.72
2022-11-24T20:01:55.002Z,100473.44
2022-11-24T20:05:09.606Z,100466.78
2022-11-24T20:08:19.196Z,100467.13
2022-11-24T20:11:24.717Z,100474.44
2022-11-24T20:14:29.012Z,100485.84
2022-11-24T20:17:33.712Z,100483.53
2022-11-24T20:20:38.936Z,100490.56
2022-11-24T20:23:43.935Z,100497.22
2022-11-24T20:26:52.707Z,100504.16
2022-11-24T20:30:00.797Z,100504.44
2022-11-24T20:33:09.817Z,100505.25
2022-11-24T20:36:30.645Z,100513.16
2022-11-24T20:39:40.905Z,100527.03
2022-11-24T20:42:50.761Z,100527.84
2022-11-24T20:46:02.747Z,100527.03
2022-11-24T20:49:08.902Z,100524.56
2022-11-24T20:52:14.925Z,100527.12
2022-11-24T20:55:18.655Z,100533.19
2022-11-24T20:58:24.864Z,100538.16
2022-11-24T21:01:41.967Z,100528.28
2022-11-24T21:04:52.316Z,100536.91
2022-11-24T21:08:02.870Z,100532.47
2022-11-24T21:11:13.596Z,100538.31
2022-11-24T21:14:17.668Z,100535.84
2022-11-24T21:17:24.824Z,100550.62
2022-11-24T21:20:31.846Z,100550.81
2022-11-24T21:23:35.260Z,100551.97
2022-11-24T21:26:39.808Z,100542.63
2022-11-24T21:29:42.896Z,100539.25
2022-11-24T21:32:48.221Z,100538.44
2022-11-24T21:35:53.870Z,100549.22
2022-11-24T21:39:04.751Z,100547.75
2022-11-24T21:42:09.132Z,100539.38
2022-11-24T21:45:13.659Z,100548.13
2022-11-24T21:48:23.148Z,100551.69
2022-11-24T21:51:26.698Z,100555.84
2022-11-24T21:54:40.045Z,100554.88
2022-11-24T21:57:43.914Z,100557.28
2022-11-24T22:00:51.002Z,100550.91
2022-11-24T22:03:58.732Z,100553.13
2022-11-24T22:07:02.474Z,100571.63
2022-11-24T22:10:06.949Z,100573.66
2022-11-24T22:13:11.859Z,100576.75
2022-11-24T22:16:17.637Z,100583.41
2022-11-24T22:19:20.791Z,100587.59
2022-11-24T22:22:24.236Z,100600.41
2022-11-24T22:25:29.603Z,100613.00
2022-11-24T22:28:36.019Z,100605.78
2022-11-24T22:31:42.189Z,100607.38
2022-11-24T22:34:45.299Z,100609.97
2022-11-24T22:37:49.273Z,100612.63
2022-11-24T22:40:53.309Z,100616.19
2022-11-24T22:43:56.999Z,100610.53
2022-11-24T22:47:01.159Z,100602.87
2022-11-24T22:50:04.584Z,100602.09
2022-11-24T22:53:07.585Z,100613.09
2022-11-24T22:56:11.939Z,100615.78
2022-11-24T22:59:15.998Z,100613.47
2022-11-24T23:02:18.921Z,100607.72
2022-11-24T23:05:29.268Z,100613.87
2022-11-24T23:08:34.243Z,100612.38
2022-11-24T23:11:39.807Z,100620.81
2022-11-24T23:14:42.934Z,100620.81
2022-11-24T23:17:46.389Z,100621.59
2022-11-24T23:20:50.073Z,100629.25
2022-11-24T23:24:02.755Z,100623.09
2022-11-24T23:27:06.112Z,100633.50
2022-11-24T23:30:10.018Z,100633.50
2022-11-24T23:33:12.719Z,100647.22
2022-11-24T23:36:19.786Z,100642.75
2022-11-24T23:39:22.220Z,100644.16
2022-11-24T23:42:24.972Z,100648.31
2022-11-24T23:45:27.975Z,100647.34
2022-11-24T23:48:32.958Z,100650.34
2022-11-24T23:51:35.975Z,100656.38
2022-11-24T23:54:40.916Z,100658.88
2022-11-24T23:57:43.793Z,100656.88
